| time (UTC) | temp F | wind direction | speed MPH | gust MPH | rain 1hr in | rain 24hr in | rain mn in | humidity % | barometer mb |
| 20260502180324 | 63 | 163 | 1.0 | 3.0 | 0.00 | 0.00 | 0.00 | 33 | -102.5 |
| 20260502170344 | 60 | 38 | 1.0 | 2.0 | 0.00 | 0.00 | 0.00 | 44 | -102.5 |
| 20260502164331 | 58 | 210 | 1.0 | 2.0 | 0.00 | 0.00 | 0.00 | 44 | -102.5 |
| 20260502163815 | 58 | 321 | 0.0 | 2.0 | 0.00 | 0.00 | 0.00 | 46 | -102.5 |
| 20260502163317 | 57 | 335 | 1.0 | 2.0 | 0.00 | 0.00 | 0.00 | 45 | -102.5 |
| 20260502162826 | 57 | 307 | 1.0 | 3.0 | 0.00 | 0.00 | 0.00 | 45 | -102.5 |
| 20260502162324 | 56 | 46 | 0.0 | 4.0 | 0.00 | 0.00 | 0.00 | 47 | -102.5 |
| 20260502161831 | 56 | 328 | 2.0 | 4.0 | 0.00 | 0.00 | 0.00 | 43 | -102.5 |
| 20260502161400 | 56 | 6 | 0.0 | 2.0 | 0.00 | 0.00 | 0.00 | 48 | -102.5 |
| 20260502160819 | 56 | 15 | 0.0 | 2.0 | 0.00 | 0.00 | 0.00 | 48 | -102.5 |
| 20260502160341 | 55 | 340 | 1.0 | 4.0 | 0.00 | 0.00 | 0.00 | 42 | -102.5 |
| 20260502152319 | 53 | 333 | 1.0 | 2.0 | 0.00 | 0.00 | 0.00 | 45 | -102.5 |
| 20260502151848 | 53 | 351 | 1.0 | 2.0 | 0.00 | 0.00 | 0.00 | 44 | -102.5 |
| 20260502151336 | 53 | 271 | 0.0 | 3.0 | 0.00 | 0.00 | 0.00 | 44 | -102.5 |
| 20260502150817 | 52 | 319 | 1.0 | 3.0 | 0.00 | 0.00 | 0.00 | 45 | -102.5 |
| 20260502150341 | 52 | 301 | 0.0 | 1.0 | 0.00 | 0.00 | 0.00 | 45 | -102.5 |
| 20260502130316 | 44 | 273 | 0.0 | 1.0 | 0.00 | 0.00 | 0.00 | 50 | -102.6 |
| 20260502123816 | 49 | 102 | 0.0 | 5.0 | 0.00 | 0.00 | 0.00 | 37 | -102.6 |
| 20260502123325 | 49 | 148 | 3.0 | 5.0 | 0.00 | 0.00 | 0.00 | 36 | -102.6 |
| 20260502122854 | 49 | 147 | 2.0 | 6.0 | 0.00 | 0.00 | 0.00 | 37 | -102.6 |
| 20260502122315 | 48 | 122 | 3.0 | 6.0 | 0.00 | 0.00 | 0.00 | 38 | -102.6 |
| 20260502121815 | 48 | 146 | 4.0 | 5.0 | 0.00 | 0.00 | 0.00 | 39 | -102.6 |
| 20260502121324 | 48 | 137 | 3.0 | 7.0 | 0.00 | 0.00 | 0.00 | 40 | -102.6 |
| 20260502120825 | 48 | 128 | 3.0 | 7.0 | 0.00 | 0.00 | 0.00 | 40 | -102.6 |
| 20260502120336 | 48 | 134 | 3.0 | 6.0 | 0.00 | 0.00 | 0.00 | 39 | -102.6 |
| 20260502115813 | 48 | 152 | 2.0 | 6.0 | 0.00 | 0.00 | 0.00 | 39 | -102.6 |
| 20260502115323 | 47 | 136 | 3.0 | 6.0 | 0.00 | 0.00 | 0.00 | 41 | -102.6 |
| 20260502114824 | 47 | 128 | 2.0 | 5.0 | 0.00 | 0.00 | 0.00 | 42 | -102.6 |
| 20260502114333 | 47 | 145 | 2.0 | 3.0 | 0.00 | 0.00 | 0.00 | 41 | -102.6 |
| 20260502113814 | 46 | 147 | 1.0 | 3.0 | 0.00 | 0.00 | 0.00 | 43 | -102.6 |
| 20260502113316 | 46 | 129 | 1.0 | 4.0 | 0.00 | 0.00 | 0.00 | 45 | -102.6 |
| 20260502112821 | 46 | 102 | 2.0 | 5.0 | 0.00 | 0.00 | 0.00 | 44 | -102.6 |
| 20260502112323 | 45 | 150 | 2.0 | 3.0 | 0.00 | 0.00 | 0.00 | 42 | -102.6 |
| 20260502111824 | 45 | 141 | 0.0 | 3.0 | 0.00 | 0.00 | 0.00 | 46 | -102.6 |
| 20260502111334 | 43 | 155 | 1.0 | 3.0 | 0.00 | 0.00 | 0.00 | 49 | -102.6 |
| 20260502110814 | 43 | 138 | 0.0 | 1.0 | 0.00 | 0.00 | 0.00 | 58 | -102.6 |
| 20260502110316 | 44 | 139 | 0.0 | 1.0 | 0.00 | 0.00 | 0.00 | 57 | -102.6 |
| 20260502105825 | 44 | 139 | 0.0 | 1.0 | 0.00 | 0.00 | 0.00 | 56 | -102.6 |
| 20260502105327 | 45 | 139 | 0.0 | 1.0 | 0.00 | 0.00 | 0.00 | 51 | -102.6 |
| 20260502104835 | 46 | 137 | 0.0 | 1.0 | 0.00 | 0.00 | 0.00 | 48 | -102.6 |
| 20260502104318 | 48 | 138 | 0.0 | 2.0 | 0.00 | 0.00 | 0.00 | 41 | -102.6 |
| 20260502103820 | 49 | 138 | 0.0 | 2.0 | 0.00 | 0.00 | 0.00 | 38 | -102.6 |
| 20260502103329 | 49 | 135 | 1.0 | 3.0 | 0.00 | 0.00 | 0.00 | 38 | -102.6 |
| 20260502102829 | 49 | 141 | 1.0 | 3.0 | 0.00 | 0.00 | 0.00 | 37 | -102.6 |
| 20260502102313 | 49 | 176 | 2.0 | 5.0 | 0.00 | 0.00 | 0.00 | 38 | -102.6 |
| 20260502101822 | 49 | 143 | 4.0 | 5.0 | 0.00 | 0.00 | 0.00 | 38 | -102.6 |
| 20260502101344 | 49 | 143 | 3.0 | 6.0 | 0.00 | 0.00 | 0.00 | 39 | -102.6 |
| 20260502100832 | 49 | 146 | 2.0 | 6.0 | 0.00 | 0.00 | 0.00 | 39 | -102.6 |
| 20260502100316 | 49 | 139 | 3.0 | 6.0 | 0.00 | 0.00 | 0.00 | 39 | -102.6 |
| 20260502091337 | 49 | 146 | 2.0 | 3.0 | 0.00 | 0.00 | 0.00 | 40 | -102.6 |
| 20260502090816 | 49 | 131 | 1.0 | 3.0 | 0.00 | 0.00 | 0.00 | 40 | -102.6 |
| 20260502090341 | 49 | 150 | 2.0 | 4.0 | 0.00 | 0.00 | 0.00 | 41 | -102.6 |
| 20260502071317 | 48 | 129 | 2.0 | 4.0 | 0.00 | 0.00 | 0.00 | 50 | -102.6 |
| 20260502070818 | 48 | 84 | 2.0 | 4.0 | 0.00 | 0.00 | 0.00 | 50 | -102.6 |
| 20260502070350 | 48 | 70 | 1.0 | 2.0 | 0.00 | 0.00 | 0.00 | 51 | -102.6 |
| 20260502065836 | 49 | 139 | 1.0 | 2.0 | 0.00 | 0.00 | 0.00 | 51 | -102.6 |
| 20260502065320 | 50 | 351 | 0.0 | 2.0 | 0.00 | 0.00 | 0.00 | 48 | -102.6 |
| 20260502064849 | 51 | 299 | 0.0 | 2.0 | 0.00 | 0.00 | 0.00 | 44 | -102.6 |
| 20260502064331 | 52 | 309 | 1.0 | 5.0 | 0.00 | 0.00 | 0.00 | 39 | -102.6 |
| 20260502063812 | 52 | 90 | 2.0 | 8.0 | 0.00 | 0.00 | 0.00 | 38 | -102.6 |
| 20260502063315 | 53 | 150 | 5.0 | 8.0 | 0.00 | 0.00 | 0.00 | 37 | -102.6 |
| 20260502062824 | 53 | 143 | 4.0 | 7.0 | 0.00 | 0.00 | 0.00 | 36 | -102.6 |
| 20260502062354 | 53 | 145 | 4.0 | 8.0 | 0.00 | 0.00 | 0.00 | 36 | -102.6 |
| 20260502061815 | 53 | 143 | 4.0 | 8.0 | 0.00 | 0.00 | 0.00 | 36 | -102.6 |
| 20260502061345 | 53 | 155 | 2.0 | 5.0 | 0.00 | 0.00 | 0.00 | 36 | -102.6 |
| 20260502060842 | 53 | 156 | 3.0 | 6.0 | 0.00 | 0.00 | 0.00 | 36 | -102.6 |
| 20260502060331 | 53 | 141 | 3.0 | 7.0 | 0.00 | 0.00 | 0.00 | 36 | -102.6 |
| 20260502055816 | 52 | 147 | 3.0 | 7.0 | 0.00 | 0.00 | 0.00 | 37 | -102.6 |
| 20260502055319 | 52 | 121 | 3.0 | 6.0 | 0.00 | 0.00 | 0.00 | 37 | -102.6 |
| 20260502054827 | 53 | 137 | 3.0 | 7.0 | 0.00 | 0.00 | 0.00 | 37 | -102.7 |
| 20260502054330 | 53 | 150 | 5.0 | 7.0 | 0.00 | 0.00 | 0.00 | 37 | -102.7 |
| 20260502053811 | 53 | 127 | 4.0 | 7.0 | 0.00 | 0.00 | 0.00 | 37 | -102.7 |
| 20260502053321 | 53 | 139 | 5.0 | 7.0 | 0.00 | 0.00 | 0.00 | 36 | -102.7 |
| 20260502052822 | 53 | 135 | 3.0 | 8.0 | 0.00 | 0.00 | 0.00 | 36 | -102.7 |
| 20260502052333 | 54 | 131 | 6.0 | 8.0 | 0.00 | 0.00 | 0.00 | 35 | -102.7 |
| 20260502051834 | 54 | 136 | 5.0 | 8.0 | 0.00 | 0.00 | 0.00 | 35 | -102.7 |
| 20260502051324 | 54 | 128 | 5.0 | 8.0 | 0.00 | 0.00 | 0.00 | 35 | -102.7 |
| 20260502050825 | 54 | 144 | 5.0 | 7.0 | 0.00 | 0.00 | 0.00 | 35 | -102.7 |
| 20260502050328 | 54 | 148 | 5.0 | 8.0 | 0.00 | 0.00 | 0.00 | 35 | -102.7 |
| 20260502045814 | 54 | 141 | 6.0 | 8.0 | 0.00 | 0.00 | 0.00 | 35 | -102.7 |
| 20260502045317 | 54 | 157 | 5.0 | 7.0 | 0.00 | 0.00 | 0.00 | 35 | -102.7 |
| 20260502044826 | 55 | 148 | 4.0 | 5.0 | 0.00 | 0.00 | 0.00 | 34 | -102.7 |
| 20260502044328 | 55 | 144 | 4.0 | 5.0 | 0.00 | 0.00 | 0.00 | 34 | -102.7 |
| 20260502043857 | 55 | 158 | 4.0 | 5.0 | 0.00 | 0.00 | 0.00 | 33 | -102.7 |
| 20260502043320 | 55 | 162 | 4.0 | 7.0 | 0.00 | 0.00 | 0.00 | 33 | -102.6 |
| 20260502042821 | 56 | 142 | 4.0 | 7.0 | 0.00 | 0.00 | 0.00 | 33 | -102.7 |
| 20260502042331 | 56 | 158 | 2.0 | 5.0 | 0.00 | 0.00 | 0.00 | 32 | -102.7 |
| 20260502041812 | 56 | 167 | 3.0 | 4.0 | 0.00 | 0.00 | 0.00 | 32 | -102.7 |
| 20260502041315 | 56 | 155 | 3.0 | 4.0 | 0.00 | 0.00 | 0.00 | 32 | -102.7 |
| 20260502040824 | 56 | 144 | 2.0 | 4.0 | 0.00 | 0.00 | 0.00 | 32 | -102.7 |
| 20260502040327 | 57 | 156 | 1.0 | 3.0 | 0.00 | 0.00 | 0.00 | 32 | -102.7 |
| 20260502035835 | 57 | 155 | 2.0 | 3.0 | 0.00 | 0.00 | 0.00 | 31 | -102.7 |
| 20260502035318 | 57 | 147 | 2.0 | 4.0 | 0.00 | 0.00 | 0.00 | 30 | -102.7 |
| 20260502034819 | 57 | 124 | 1.0 | 4.0 | 0.00 | 0.00 | 0.00 | 30 | -102.7 |
| 20260502034330 | 57 | 133 | 0.0 | 5.0 | 0.00 | 0.00 | 0.00 | 32 | -102.7 |
| 20260502033811 | 57 | 147 | 3.0 | 5.0 | 0.00 | 0.00 | 0.00 | 31 | -102.7 |
| 20260502033314 | 58 | 146 | 2.0 | 3.0 | 0.00 | 0.00 | 0.00 | 31 | -102.7 |
| 20260502032821 | 58 | 164 | 2.0 | 3.0 | 0.00 | 0.00 | 0.00 | 30 | -102.7 |
| 20260502032324 | 59 | 160 | 1.0 | 4.0 | 0.00 | 0.00 | 0.00 | 29 | -102.7 |
| 20260502031853 | 59 | 143 | 1.0 | 7.0 | 0.00 | 0.00 | 0.00 | 29 | -102.7 |
| 20260502031315 | 59 | 82 | 2.0 | 5.0 | 0.00 | 0.00 | 0.00 | 29 | -102.7 |
| 20260502030815 | 59 | 68 | 2.0 | 4.0 | 0.00 | 0.00 | 0.00 | 29 | -102.7 |
| 20260502030325 | 59 | 127 | 3.0 | 4.0 | 0.00 | 0.00 | 0.00 | 29 | -102.7 |
| 20260502025823 | 59 | 129 | 2.0 | 4.0 | 0.00 | 0.00 | 0.00 | 29 | -102.8 |
| 20260502025334 | 60 | 126 | 1.0 | 4.0 | 0.00 | 0.00 | 0.00 | 28 | -102.8 |
| 20260502024814 | 60 | 133 | 2.0 | 6.0 | 0.00 | 0.00 | 0.00 | 29 | -102.8 |
| 20260502024345 | 60 | 153 | 4.0 | 6.0 | 0.00 | 0.00 | 0.00 | 28 | -102.8 |
| 20260502023824 | 60 | 124 | 3.0 | 5.0 | 0.00 | 0.00 | 0.00 | 28 | -102.8 |
| 20260502023315 | 60 | 138 | 1.0 | 3.0 | 0.00 | 0.00 | 0.00 | 28 | -102.8 |
| 20260502022835 | 60 | 122 | 1.0 | 3.0 | 0.00 | 0.00 | 0.00 | 28 | -102.8 |
| 20260502022323 | 61 | 131 | 1.0 | 3.0 | 0.00 | 0.00 | 0.00 | 29 | -102.8 |
| 20260502021831 | 61 | 141 | 1.0 | 3.0 | 0.00 | 0.00 | 0.00 | 27 | -102.8 |
| 20260502021313 | 62 | 69 | 0.0 | 3.0 | 0.00 | 0.00 | 0.00 | 25 | -102.8 |
| 20260502020815 | 62 | 127 | 1.0 | 3.0 | 0.00 | 0.00 | 0.00 | 25 | -102.8 |
| 20260502020317 | 62 | 60 | 0.0 | 3.0 | 0.00 | 0.00 | 0.00 | 24 | -102.8 |
| 20260502015825 | 62 | 60 | 2.0 | 3.0 | 0.00 | 0.00 | 0.00 | 25 | -102.8 |
| 20260502015328 | 62 | 79 | 1.0 | 2.0 | 0.00 | 0.00 | 0.00 | 29 | -102.8 |
| 20260502014812 | 62 | 287 | 0.0 | 1.0 | 0.00 | 0.00 | 0.00 | 29 | -102.8 |
| 20260502014315 | 62 | 286 | 0.0 | 2.0 | 0.00 | 0.00 | 0.00 | 27 | -102.8 |
| 20260502013815 | 62 | 8 | 0.0 | 2.0 | 0.00 | 0.00 | 0.00 | 25 | -102.8 |
| 20260502013326 | 63 | 305 | 1.0 | 3.0 | 0.00 | 0.00 | 0.00 | 26 | -102.8 |
| 20260502012826 | 63 | 323 | 2.0 | 3.0 | 0.00 | 0.00 | 0.00 | 27 | -102.8 |
| 20260502012335 | 63 | 290 | 1.0 | 2.0 | 0.00 | 0.00 | 0.00 | 25 | -102.8 |
| 20260502011816 | 63 | 349 | 0.0 | 4.0 | 0.00 | 0.00 | 0.00 | 25 | -102.8 |
| 20260502011319 | 63 | 300 | 1.0 | 4.0 | 0.00 | 0.00 | 0.00 | 26 | -102.8 |
| 20260502010826 | 63 | 296 | 2.0 | 5.0 | 0.00 | 0.00 | 0.00 | 26 | -102.8 |
| 20260502010329 | 63 | 293 | 1.0 | 5.0 | 0.00 | 0.00 | 0.00 | 27 | -102.8 |
| 20260502005837 | 64 | 286 | 1.0 | 3.0 | 0.00 | 0.00 | 0.00 | 26 | -102.8 |
| 20260502005321 | 64 | 302 | 2.0 | 3.0 | 0.00 | 0.00 | 0.00 | 26 | -102.8 |
| 20260502004820 | 64 | 307 | 1.0 | 6.0 | 0.00 | 0.00 | 0.00 | 27 | -102.8 |
| 20260502004350 | 64 | 296 | 2.0 | 6.0 | 0.00 | 0.00 | 0.00 | 26 | -102.8 |
| 20260502003837 | 63 | 321 | 2.0 | 5.0 | 0.00 | 0.00 | 0.00 | 26 | -102.8 |
| 20260502003347 | 64 | 295 | 2.0 | 3.0 | 0.00 | 0.00 | 0.00 | 28 | -102.8 |
| 20260502002847 | 64 | 153 | 1.0 | 3.0 | 0.00 | 0.00 | 0.00 | 29 | -102.8 |
| 20260502002336 | 64 | 296 | 1.0 | 4.0 | 0.00 | 0.00 | 0.00 | 25 | -102.8 |
| 20260502001817 | 64 | 32 | 2.0 | 5.0 | 0.00 | 0.00 | 0.00 | 24 | -102.8 |
| 20260502001327 | 64 | 278 | 2.0 | 5.0 | 0.00 | 0.00 | 0.00 | 25 | -102.8 |
| 20260502000827 | 64 | 314 | 0.0 | 5.0 | 0.00 | 0.00 | 0.00 | 27 | -102.8 |
| 20260502000318 | 64 | 324 | 1.0 | 7.0 | 0.00 | 0.00 | 0.00 | 26 | -102.8 |
| 20260501235817 | 65 | 6 | 3.0 | 7.0 | 0.00 | 0.00 | 0.00 | 24 | -102.8 |
| 20260501235348 | 65 | 300 | 3.0 | 6.0 | 0.00 | 0.00 | 0.00 | 25 | -102.8 |
| 20260501234827 | 65 | 311 | 1.0 | 5.0 | 0.00 | 0.00 | 0.00 | 26 | -102.8 |
| 20260501234334 | 65 | 302 | 2.0 | 5.0 | 0.00 | 0.00 | 0.00 | 25 | -102.8 |
| 20260501233814 | 64 | 323 | 0.0 | 3.0 | 0.00 | 0.00 | 0.00 | 27 | -102.8 |
| 20260501233317 | 64 | 117 | 1.0 | 4.0 | 0.00 | 0.00 | 0.00 | 25 | -102.8 |
| 20260501232825 | 64 | 299 | 2.0 | 4.0 | 0.00 | 0.00 | 0.00 | 26 | -102.8 |
| 20260501232328 | 64 | 297 | 1.0 | 5.0 | 0.00 | 0.00 | 0.00 | 27 | -102.8 |
| 20260501231836 | 64 | 297 | 2.0 | 5.0 | 0.00 | 0.00 | 0.00 | 28 | -102.8 |
| 20260501231340 | 64 | 55 | 3.0 | 6.0 | 0.00 | 0.00 | 0.00 | 26 | -102.8 |
| 20260501230820 | 64 | 292 | 1.0 | 7.0 | 0.00 | 0.00 | 0.00 | 24 | -102.8 |
| 20260501230350 | 64 | 327 | 2.0 | 7.0 | 0.00 | 0.00 | 0.00 | 25 | -102.8 |
| 20260501225824 | 64 | 39 | 2.0 | 5.0 | 0.00 | 0.00 | 0.00 | 26 | -102.8 |
| 20260501225327 | 64 | 293 | 1.0 | 7.0 | 0.00 | 0.00 | 0.00 | 24 | -102.8 |
| 20260501224836 | 65 | 293 | 3.0 | 7.0 | 0.00 | 0.00 | 0.00 | 25 | -102.8 |
| 20260501224338 | 65 | 316 | 3.0 | 5.0 | 0.00 | 0.00 | 0.00 | 25 | -102.7 |
| 20260501223846 | 65 | 323 | 2.0 | 5.0 | 0.00 | 0.00 | 0.00 | 25 | -102.7 |
| 20260501223327 | 65 | 323 | 2.0 | 5.0 | 0.00 | 0.00 | 0.00 | 26 | -102.7 |
| 20260501222836 | 65 | 307 | 2.0 | 4.0 | 0.00 | 0.00 | 0.00 | 27 | -102.7 |
| 20260501222339 | 65 | 311 | 1.0 | 4.0 | 0.00 | 0.00 | 0.00 | 29 | -102.7 |
| 20260501221847 | 64 | 102 | 1.0 | 5.0 | 0.00 | 0.00 | 0.00 | 24 | -102.7 |
| 20260501221328 | 65 | 24 | 2.0 | 5.0 | 0.00 | 0.00 | 0.00 | 24 | -102.7 |
| 20260501220837 | 65 | 297 | 1.0 | 5.0 | 0.00 | 0.00 | 0.00 | 27 | -102.7 |
| 20260501220319 | 65 | 219 | 1.0 | 6.0 | 0.00 | 0.00 | 0.00 | 25 | -102.7 |
| 20260501215828 | 65 | 9 | 2.0 | 6.0 | 0.00 | 0.00 | 0.00 | 25 | -102.7 |
| 20260501215329 | 65 | 319 | 2.0 | 5.0 | 0.00 | 0.00 | 0.00 | 26 | -102.7 |
| 20260501214829 | 65 | 298 | 3.0 | 5.0 | 0.00 | 0.00 | 0.00 | 25 | -102.7 |
| 20260501214340 | 65 | 1 | 1.0 | 11.0 | 0.00 | 0.00 | 0.00 | 28 | -102.7 |
| 20260501213818 | 65 | 323 | 5.0 | 11.0 | 0.00 | 0.00 | 0.00 | 26 | -102.7 |
| 20260501213329 | 66 | 6 | 1.0 | 4.0 | 0.00 | 0.00 | 0.00 | 27 | -102.7 |
| 20260501212811 | 66 | 315 | 1.0 | 4.0 | 0.00 | 0.00 | 0.00 | 27 | -102.7 |
| 20260501212314 | 65 | 324 | 0.0 | 3.0 | 0.00 | 0.00 | 0.00 | 30 | -102.7 |
| 20260501211843 | 64 | 283 | 1.0 | 5.0 | 0.00 | 0.00 | 0.00 | 24 | -102.7 |
| 20260501211353 | 65 | 293 | 2.0 | 8.0 | 0.00 | 0.00 | 0.00 | 25 | -102.7 |
| 20260501210813 | 66 | 293 | 1.0 | 5.0 | 0.00 | 0.00 | 0.00 | 27 | -102.7 |
| 20260501210316 | 65 | 75 | 2.0 | 5.0 | 0.00 | 0.00 | 0.00 | 24 | -102.6 |
| 20260501205826 | 66 | 224 | 2.0 | 5.0 | 0.00 | 0.00 | 0.00 | 27 | -102.7 |
| 20260501205357 | 65 | 148 | 1.0 | 4.0 | 0.00 | 0.00 | 0.00 | 25 | -102.7 |
| 20260501204818 | 66 | 333 | 2.0 | 6.0 | 0.00 | 0.00 | 0.00 | 26 | -102.6 |
| 20260501204321 | 65 | 134 | 1.0 | 6.0 | 0.00 | 0.00 | 0.00 | 30 | -102.6 |
| 20260501203345 | 67 | 93 | 1.0 | 4.0 | 0.00 | 0.00 | 0.00 | 28 | -102.6 |
| 20260501202834 | 67 | 161 | 2.0 | 4.0 | 0.00 | 0.00 | 0.00 | 26 | -102.7 |
| 20260501202316 | 67 | 156 | 1.0 | 4.0 | 0.00 | 0.00 | 0.00 | 31 | -102.6 |
| 20260501201837 | 67 | 200 | 1.0 | 6.0 | 0.00 | 0.00 | 0.00 | 30 | -102.6 |
| 20260501201347 | 66 | 142 | 1.0 | 6.0 | 0.00 | 0.00 | 0.00 | 27 | -102.6 |
| 20260501200835 | 66 | 154 | 2.0 | 5.0 | 0.00 | 0.00 | 0.00 | 30 | -102.6 |
| 20260501200320 | 65 | 340 | 1.0 | 7.0 | 0.00 | 0.00 | 0.00 | 29 | -102.6 |
| 20260501195819 | 65 | 200 | 1.0 | 3.0 | 0.00 | 0.00 | 0.00 | 27 | -102.6 |
| 20260501195328 | 64 | 337 | 1.0 | 3.0 | 0.00 | 0.00 | 0.00 | 29 | -102.6 |
| 20260501194830 | 64 | 330 | 1.0 | 3.0 | 0.00 | 0.00 | 0.00 | 27 | -102.6 |
| 20260501194312 | 64 | 293 | 2.0 | 3.0 | 0.00 | 0.00 | 0.00 | 24 | -102.6 |
| 20260501193820 | 65 | 113 | 2.0 | 4.0 | 0.00 | 0.00 | 0.00 | 26 | -102.6 |
| 20260501193323 | 65 | 156 | 1.0 | 4.0 | 0.00 | 0.00 | 0.00 | 24 | -102.6 |
| 20260501192831 | 65 | 162 | 1.0 | 3.0 | 0.00 | 0.00 | 0.00 | 24 | -102.6 |
| 20260501192334 | 64 | 158 | 1.0 | 5.0 | 0.00 | 0.00 | 0.00 | 31 | -102.6 |
| 20260501191814 | 63 | 143 | 1.0 | 5.0 | 0.00 | 0.00 | 0.00 | 27 | -102.6 |
| 20260501191345 | 64 | 175 | 3.0 | 5.0 | 0.00 | 0.00 | 0.00 | 24 | -102.6 |
| 20260501190832 | 63 | 168 | 0.0 | 4.0 | 0.00 | 0.00 | 0.00 | 27 | -102.6 |
| 20260501190315 | 63 | 156 | 2.0 | 4.0 | 0.00 | 0.00 | 0.00 | 26 | -102.6 |
| 20260501185816 | 63 | 303 | 1.0 | 3.0 | 0.00 | 0.00 | 0.00 | 25 | -102.6 |
| 20260501185325 | 64 | 143 | 1.0 | 3.0 | 0.00 | 0.00 | 0.00 | 26 | -102.6 |
| 20260501184811 | 63 | 336 | 1.0 | 4.0 | 0.00 | 0.00 | 0.00 | 29 | -102.6 |
| 20260501184313 | 63 | 11 | 2.0 | 3.0 | 0.00 | 0.00 | 0.00 | 28 | -102.6 |
| 20260501183821 | 63 | 348 | 1.0 | 3.0 | 0.00 | 0.00 | 0.00 | 32 | -102.6 |
| 20260501183324 | 63 | 136 | 1.0 | 7.0 | 0.00 | 0.00 | 0.00 | 30 | -102.6 |
| 20260501182832 | 62 | 151 | 2.0 | 7.0 | 0.00 | 0.00 | 0.00 | 28 | -102.6 |
| 20260501182314 | 63 | 154 | 3.0 | 5.0 | 0.00 | 0.00 | 0.00 | 28 | -102.6 |
| 20260501181836 | 62 | 179 | 2.0 | 6.0 | 0.00 | 0.00 | 0.00 | 29 | -102.6 |
| 20260501181341 | 61 | 165 | 2.0 | 5.0 | 0.00 | 0.00 | 0.00 | 30 | -102.6 |
| 20260501180829 | 61 | 159 | 2.0 | 7.0 | 0.00 | 0.00 | 0.00 | 29 | -102.6 |